createdAt,value
2023-06-01T00:02:11.027Z,18.40
2023-06-01T00:05:14.410Z,19.40
2023-06-01T00:08:19.197Z,14.40
2023-06-01T00:11:22.954Z,17.00
2023-06-01T00:14:26.216Z,17.00
2023-06-01T00:17:31.881Z,15.60
2023-06-01T00:20:35.239Z,16.60
2023-06-01T00:23:42.225Z,15.80
2023-06-01T00:26:45.600Z,16.00
2023-06-01T00:29:49.008Z,18.00
2023-06-01T00:32:52.360Z,14.60
2023-06-01T00:35:55.764Z,22.50
2023-06-01T00:39:04.178Z,15.00
2023-06-01T00:42:10.576Z,13.00
2023-06-01T00:45:13.834Z,14.20
2023-06-01T00:48:18.695Z,13.00
2023-06-01T00:51:22.587Z,15.50
2023-06-01T00:54:27.300Z,15.00
2023-06-01T00:57:31.730Z,14.00
2023-06-01T01:00:35.252Z,14.00
2023-06-01T01:03:39.758Z,17.25
2023-06-01T01:06:57.727Z,15.80
2023-06-01T01:10:16.205Z,14.25
2023-06-01T01:13:25.804Z,13.25
2023-06-01T01:16:32.958Z,16.40
2023-06-01T01:19:59.274Z,16.00
2023-06-01T01:23:18.174Z,16.60
2023-06-01T01:26:44.119Z,15.80
2023-06-01T01:29:49.658Z,13.80
2023-06-01T01:32:53.686Z,14.00
2023-06-01T01:35:58.686Z,14.00
2023-06-01T01:39:02.061Z,14.00
2023-06-01T01:42:06.986Z,14.00
2023-06-01T01:45:13.214Z,13.00
2023-06-01T01:48:24.039Z,14.60
2023-06-01T01:51:38.856Z,12.00
2023-06-01T01:54:45.609Z,11.00
2023-06-01T01:57:51.118Z,14.20
2023-06-01T02:00:56.388Z,13.00
2023-06-01T02:04:01.501Z,12.60
2023-06-01T02:07:05.713Z,14.00
2023-06-01T02:10:10.869Z,14.00
2023-06-01T02:13:14.622Z,13.00
2023-06-01T02:16:19.463Z,12.00
2023-06-01T02:19:23.028Z,10.75
2023-06-01T02:22:26.509Z,10.00
2023-06-01T02:25:29.958Z,10.60
2023-06-01T02:28:33.258Z,13.00
2023-06-01T02:31:38.013Z,10.00
2023-06-01T02:34:41.558Z,11.60
2023-06-01T02:37:44.924Z,11.00
2023-06-01T02:40:48.963Z,8.20
2023-06-01T02:43:53.321Z,10.00
2023-06-01T02:46:58.011Z,11.00
2023-06-01T02:50:01.393Z,11.60
2023-06-01T02:53:05.920Z,9.00
2023-06-01T02:56:09.504Z,11.00
2023-06-01T02:59:45.110Z,9.40
2023-06-01T03:02:50.688Z,11.00
2023-06-01T03:05:54.749Z,13.00
2023-06-01T03:09:23.929Z,12.00
2023-06-01T03:12:50.546Z,13.00
2023-06-01T03:15:54.181Z,10.00
2023-06-01T03:18:59.357Z,11.00
2023-06-01T03:22:02.875Z,12.00
2023-06-01T03:25:08.325Z,10.00
2023-06-01T03:28:12.093Z,13.00
2023-06-01T03:31:17.826Z,11.40
2023-06-01T03:34:23.658Z,13.00
2023-06-01T03:37:26.918Z,12.00
2023-06-01T03:40:30.246Z,13.60
2023-06-01T03:43:34.001Z,12.00
2023-06-01T03:46:37.484Z,16.80
2023-06-01T03:49:42.211Z,11.40
2023-06-01T03:52:47.795Z,13.60
2023-06-01T03:55:53.353Z,13.00
2023-06-01T03:59:14.491Z,14.40
2023-06-01T04:02:18.835Z,14.00
2023-06-01T04:05:24.332Z,9.00
2023-06-01T04:08:28.010Z,11.00
2023-06-01T04:11:31.333Z,13.00
2023-06-01T04:14:34.912Z,10.00
2023-06-01T04:17:39.163Z,10.00
2023-06-01T04:20:44.334Z,11.60
2023-06-01T04:23:47.563Z,10.00
2023-06-01T04:26:52.142Z,9.50
2023-06-01T04:29:55.747Z,10.00
2023-06-01T04:33:01.155Z,11.00
2023-06-01T04:36:07.442Z,10.40
2023-06-01T04:39:11.672Z,8.25
2023-06-01T04:42:15.852Z,9.00
2023-06-01T04:45:20.234Z,11.00
2023-06-01T04:48:23.887Z,11.00
2023-06-01T04:51:37.786Z,9.00
2023-06-01T04:54:41.279Z,11.00
2023-06-01T04:57:45.584Z,9.00
2023-06-01T05:00:49.085Z,10.60
2023-06-01T05:03:54.236Z,11.00
2023-06-01T05:06:59.497Z,8.00
2023-06-01T05:10:06.945Z,11.00
2023-06-01T05:13:17.923Z,11.00
2023-06-01T05:16:21.778Z,9.00
2023-06-01T05:19:26.121Z,10.00
2023-06-01T05:22:32.490Z,12.00
2023-06-01T05:25:35.924Z,15.00
2023-06-01T05:28:39.251Z,11.80
2023-06-01T05:31:45.920Z,15.60
2023-06-01T05:34:49.271Z,13.00
2023-06-01T05:37:54.261Z,12.25
2023-06-01T05:40:57.677Z,11.40
2023-06-01T05:44:01.894Z,9.00
2023-06-01T05:47:05.599Z,11.25
2023-06-01T05:50:09.311Z,9.50
2023-06-01T05:53:14.070Z,11.25
2023-06-01T05:56:18.042Z,15.50
2023-06-01T05:59:21.787Z,10.60
2023-06-01T06:02:25.309Z,10.00
2023-06-01T06:05:29.364Z,11.00
2023-06-01T06:08:34.420Z,7.00
2023-06-01T06:11:39.469Z,9.00
2023-06-01T06:14:42.816Z,9.00
2023-06-01T06:17:46.448Z,9.25
2023-06-01T06:20:49.963Z,9.00
2023-06-01T06:24:00.074Z,11.60
2023-06-01T06:27:04.430Z,9.00
2023-06-01T06:30:09.039Z,8.00
2023-06-01T06:33:14.543Z,8.50
2023-06-01T06:36:19.007Z,8.00
2023-06-01T06:39:24.064Z,8.00
2023-06-01T06:42:27.367Z,8.80
2023-06-01T06:45:30.647Z,9.00
2023-06-01T06:48:33.968Z,8.00
2023-06-01T06:51:39.260Z,8.00
2023-06-01T06:54:44.048Z,8.00
2023-06-01T06:57:47.349Z,10.60
2023-06-01T07:00:50.799Z,9.60
2023-06-01T07:03:54.270Z,8.60
2023-06-01T07:06:57.858Z,10.20
2023-06-01T07:10:02.451Z,11.00
2023-06-01T07:13:05.798Z,11.00
2023-06-01T07:16:09.093Z,9.20
2023-06-01T07:19:12.411Z,9.00
2023-06-01T07:22:16.505Z,11.00
2023-06-01T07:25:21.259Z,10.00
2023-06-01T07:28:27.967Z,10.00
2023-06-01T07:31:31.315Z,9.40
2023-06-01T07:34:35.507Z,9.50
2023-06-01T07:37:38.925Z,11.00
2023-06-01T07:40:43.870Z,7.00
2023-06-01T07:43:47.705Z,7.25
2023-06-01T07:46:51.238Z,6.00
2023-06-01T07:49:54.552Z,9.67
2023-06-01T07:52:58.483Z,7.40
2023-06-01T07:56:04.112Z,7.50
2023-06-01T07:59:07.773Z,8.00
2023-06-01T08:02:12.133Z,5.25
2023-06-01T08:05:19.515Z,10.50
2023-06-01T08:08:23.328Z,7.60
2023-06-01T08:11:28.180Z,9.60
2023-06-01T08:14:33.555Z,8.00
2023-06-01T08:17:36.998Z,9.00
2023-06-01T08:20:40.362Z,8.60
2023-06-01T08:23:43.657Z,6.75
2023-06-01T08:26:48.468Z,8.00
2023-06-01T08:29:54.133Z,5.00
2023-06-01T08:32:58.435Z,8.00
2023-06-01T08:36:01.973Z,7.00
2023-06-01T08:39:24.483Z,7.00
2023-06-01T08:42:33.267Z,5.40
2023-06-01T08:45:36.861Z,6.00
2023-06-01T08:48:42.005Z,5.50
2023-06-01T08:51:46.983Z,6.00
2023-06-01T08:54:51.212Z,5.00
2023-06-01T08:57:56.057Z,7.40
2023-06-01T09:01:01.277Z,5.40
2023-06-01T09:04:04.808Z,7.00
2023-06-01T09:07:08.700Z,6.50
2023-06-01T09:10:12.665Z,6.00
2023-06-01T09:13:33.197Z,6.00
2023-06-01T09:16:39.562Z,6.00
2023-06-01T09:19:44.329Z,7.00
2023-06-01T09:22:48.578Z,5.00
2023-06-01T09:26:06.195Z,7.40
2023-06-01T09:29:10.945Z,5.80
2023-06-01T09:32:22.090Z,8.40
2023-06-01T09:35:39.964Z,5.80
2023-06-01T09:38:43.395Z,5.00
2023-06-01T09:41:48.044Z,6.25
2023-06-01T09:44:52.632Z,4.00
2023-06-01T09:47:55.969Z,7.00
2023-06-01T09:51:01.613Z,6.00
2023-06-01T09:54:06.155Z,4.40
2023-06-01T09:57:12.533Z,7.50
2023-06-01T10:00:25.832Z,8.20
2023-06-01T10:03:29.949Z,5.00
2023-06-01T10:06:38.019Z,6.60
2023-06-01T10:09:44.139Z,3.00
2023-06-01T10:12:48.082Z,5.20
2023-06-01T10:15:56.105Z,5.00
2023-06-01T10:19:00.459Z,5.40
2023-06-01T10:22:05.533Z,7.00
2023-06-01T10:25:12.853Z,5.00
2023-06-01T10:28:17.223Z,6.00
2023-06-01T10:31:42.941Z,7.00
2023-06-01T10:34:47.201Z,6.00
2023-06-01T10:38:24.002Z,5.50
2023-06-01T10:41:32.610Z,8.00
2023-06-01T10:44:49.630Z,3.00
2023-06-01T10:47:54.573Z,6.00
2023-06-01T10:51:19.706Z,7.00
2023-06-01T10:54:29.201Z,6.00
2023-06-01T10:57:32.702Z,4.00
2023-06-01T11:00:41.527Z,6.00
2023-06-01T11:03:49.039Z,5.00
2023-06-01T11:06:52.434Z,6.00
2023-06-01T11:09:55.709Z,6.60
2023-06-01T11:13:18.625Z,5.00
2023-06-01T11:16:33.188Z,4.20
2023-06-01T11:19:41.795Z,4.00
2023-06-01T11:22:45.487Z,6.80
2023-06-01T11:25:50.963Z,6.00
2023-06-01T11:29:05.537Z,6.50
2023-06-01T11:32:09.479Z,6.00
2023-06-01T11:35:22.182Z,7.00
2023-06-01T11:38:25.530Z,6.50
2023-06-01T11:41:28.875Z,4.00
2023-06-01T11:44:32.179Z,5.00
2023-06-01T11:47:36.791Z,3.00
2023-06-01T11:50:48.536Z,5.40
2023-06-01T11:53:54.720Z,4.50
2023-06-01T11:56:59.564Z,4.80
2023-06-01T12:00:04.993Z,6.00
2023-06-01T12:03:10.199Z,7.00
2023-06-01T12:06:22.798Z,5.40
2023-06-01T12:09:26.678Z,6.50
2023-06-01T12:12:34.824Z,5.00
2023-06-01T12:15:38.659Z,4.00
2023-06-01T12:18:42.262Z,3.80
2023-06-01T12:21:52.007Z,5.00
2023-06-01T12:24:55.808Z,5.00
2023-06-01T12:28:07.015Z,5.60
2023-06-01T12:31:11.753Z,5.20
2023-06-01T12:34:19.036Z,6.00
2023-06-01T12:37:23.907Z,5.00
2023-06-01T12:40:27.289Z,6.00
2023-06-01T12:43:30.592Z,4.00
2023-06-01T12:46:36.688Z,4.00
2023-06-01T12:49:41.343Z,7.00
2023-06-01T12:52:46.044Z,7.00
2023-06-01T12:55:49.847Z,5.00
2023-06-01T12:58:53.109Z,4.00
2023-06-01T13:01:57.977Z,3.00
2023-06-01T13:05:01.270Z,4.75
2023-06-01T13:08:06.224Z,4.00
2023-06-01T13:14:14.075Z,3.60
2023-06-01T13:17:17.371Z,4.20
2023-06-01T13:20:20.703Z,4.20
2023-06-01T13:23:25.465Z,7.00
2023-06-01T13:26:28.896Z,5.00
2023-06-01T13:29:32.215Z,5.00
2023-06-01T13:32:36.210Z,5.00
2023-06-01T13:35:39.644Z,6.20
2023-06-01T13:38:44.637Z,5.00
2023-06-01T13:41:48.004Z,4.00
2023-06-01T13:44:51.709Z,7.40
2023-06-01T13:47:56.401Z,4.00
2023-06-01T13:50:59.927Z,5.00
2023-06-01T13:54:04.905Z,5.00
2023-06-01T13:57:09.243Z,5.00
2023-06-01T14:00:14.133Z,5.00
2023-06-01T14:03:20.820Z,5.00
2023-06-01T14:06:24.195Z,5.60
2023-06-01T14:09:28.846Z,5.50
2023-06-01T14:12:32.406Z,7.50
2023-06-01T14:15:36.287Z,6.00
2023-06-01T14:18:40.354Z,5.00
2023-06-01T14:21:43.866Z,4.00
2023-06-01T14:24:48.657Z,4.25
2023-06-01T14:27:52.184Z,6.00
2023-06-01T14:30:55.812Z,7.00
2023-06-01T14:33:59.622Z,6.00
2023-06-01T14:37:05.632Z,7.00
2023-06-01T14:40:11.378Z,5.00
2023-06-01T14:43:14.690Z,5.00
2023-06-01T14:46:17.976Z,7.40
2023-06-01T14:49:21.676Z,5.50
2023-06-01T14:52:25.802Z,5.40
2023-06-01T14:55:31.032Z,6.00
2023-06-01T14:58:34.367Z,6.00
2023-06-01T15:01:37.803Z,7.00
2023-06-01T15:04:41.171Z,7.25
2023-06-01T15:07:44.557Z,6.00
2023-06-01T15:10:49.748Z,6.00
2023-06-01T15:13:53.032Z,4.00
2023-06-01T15:16:56.526Z,7.00
2023-06-01T15:19:59.976Z,6.00
2023-06-01T15:23:03.487Z,5.25
2023-06-01T15:26:08.223Z,5.60
2023-06-01T15:29:11.640Z,6.00
2023-06-01T15:32:14.978Z,6.00
2023-06-01T15:35:18.865Z,5.00
2023-06-01T15:38:22.815Z,5.00
2023-06-01T15:41:28.922Z,7.00
2023-06-01T15:44:32.235Z,6.00
2023-06-01T15:47:35.701Z,6.00
2023-06-01T15:50:40.548Z,6.20
2023-06-01T15:53:44.042Z,8.00
2023-06-01T15:56:48.890Z,6.20
2023-06-01T15:59:52.156Z,6.00
2023-06-01T16:02:55.964Z,7.80
2023-06-01T16:05:59.343Z,8.00
2023-06-01T16:09:02.662Z,7.00
2023-06-01T16:12:08.325Z,7.00
2023-06-01T16:15:12.259Z,7.00
2023-06-01T16:18:15.643Z,7.00
2023-06-01T16:21:19.026Z,7.25
2023-06-01T16:24:22.905Z,7.00
2023-06-01T16:27:29.600Z,5.00
2023-06-01T16:30:33.277Z,7.00
2023-06-01T16:33:36.742Z,7.00
2023-06-01T16:36:41.911Z,9.00
2023-06-01T16:39:45.738Z,9.00
2023-06-01T16:42:51.720Z,8.00
2023-06-01T16:45:56.317Z,8.60
2023-06-01T16:48:59.709Z,8.00
2023-06-01T16:52:03.038Z,9.40
2023-06-01T16:55:07.696Z,7.00
2023-06-01T16:58:12.953Z,7.40
2023-06-01T17:01:16.340Z,8.00
2023-06-01T17:04:19.683Z,6.67
2023-06-01T17:07:23.133Z,7.20
2023-06-01T17:10:26.456Z,7.00
2023-06-01T17:13:31.880Z,7.00
2023-06-01T17:16:35.243Z,6.60
2023-06-01T17:19:38.781Z,6.60
2023-06-01T17:22:42.236Z,7.00
2023-06-01T17:25:45.698Z,6.00
2023-06-01T17:28:50.593Z,7.60
2023-06-01T17:31:53.944Z,6.60
2023-06-01T17:34:57.244Z,6.00
2023-06-01T17:38:00.562Z,3.00
2023-06-01T17:41:04.707Z,6.00
2023-06-01T17:44:09.867Z,8.00
2023-06-01T17:47:13.495Z,6.00
2023-06-01T17:50:17.181Z,9.00
2023-06-01T17:53:39.248Z,6.00
2023-06-01T17:56:44.219Z,9.00
2023-06-01T17:59:49.975Z,8.00
2023-06-01T18:02:55.964Z,9.00
2023-06-01T18:05:59.762Z,8.40
2023-06-01T18:09:03.220Z,9.75
2023-06-01T18:12:07.293Z,8.20
2023-06-01T18:15:12.781Z,9.67
2023-06-01T18:18:16.234Z,8.00
2023-06-01T18:21:21.378Z,10.60
2023-06-01T18:24:24.891Z,7.00
2023-06-01T18:27:28.416Z,10.75
2023-06-01T18:30:33.250Z,9.00
2023-06-01T18:33:36.729Z,11.40
2023-06-01T18:36:40.039Z,8.00
2023-06-01T18:39:43.274Z,10.40
2023-06-01T18:42:46.518Z,10.00
2023-06-01T18:45:51.661Z,9.00
2023-06-01T18:48:54.968Z,11.00
2023-06-01T18:51:58.286Z,12.00
2023-06-01T18:55:02.129Z,10.00
2023-06-01T18:58:05.435Z,11.00
2023-06-01T19:01:11.769Z,13.00
2023-06-01T19:04:16.813Z,10.60
2023-06-01T19:07:36.222Z,11.40
2023-06-01T19:11:01.077Z,9.00
2023-06-01T19:14:04.525Z,10.00
2023-06-01T19:17:09.214Z,10.00
2023-06-01T19:20:49.296Z,10.00
2023-06-01T19:23:57.301Z,12.00
2023-06-01T19:27:00.796Z,12.60
2023-06-01T19:30:04.202Z,14.00
2023-06-01T19:33:10.559Z,12.00
2023-06-01T19:36:51.451Z,12.00
2023-06-01T19:39:54.705Z,10.60
2023-06-01T19:42:59.254Z,13.00
2023-06-01T19:46:08.378Z,13.50
2023-06-01T19:49:18.442Z,11.75
2023-06-01T19:52:38.210Z,11.00
2023-06-01T19:55:41.718Z,11.00
2023-06-01T19:58:45.380Z,10.00
2023-06-01T20:01:49.840Z,10.60
2023-06-01T20:04:54.548Z,12.00
2023-06-01T20:08:02.347Z,9.20
2023-06-01T20:11:06.074Z,12.00
2023-06-01T20:14:13.302Z,9.40
2023-06-01T20:17:16.793Z,10.00
2023-06-01T20:20:21.645Z,10.00
2023-06-01T20:23:25.073Z,11.25
2023-06-01T20:26:28.358Z,9.00
2023-06-01T20:29:33.645Z,11.00
2023-06-01T20:32:36.981Z,12.00
2023-06-01T20:35:43.808Z,12.00
2023-06-01T20:38:47.206Z,13.00
2023-06-01T20:41:52.499Z,12.00
2023-06-01T20:44:55.976Z,13.00
2023-06-01T20:47:59.302Z,10.00
2023-06-01T20:51:04.034Z,11.00
2023-06-01T20:54:09.424Z,12.00
2023-06-01T20:57:17.246Z,9.00
2023-06-01T21:00:20.588Z,10.75
2023-06-01T21:03:24.560Z,12.40
2023-06-01T21:06:29.942Z,11.00
2023-06-01T21:09:35.073Z,9.00
2023-06-01T21:12:38.645Z,11.80
2023-06-01T21:15:43.565Z,11.80
2023-06-01T21:18:46.955Z,12.60
2023-06-01T21:21:52.092Z,9.20
2023-06-01T21:24:56.161Z,10.60
2023-06-01T21:27:59.495Z,12.00
2023-06-01T21:31:02.924Z,10.00
2023-06-01T21:34:06.714Z,9.00
2023-06-01T21:37:11.473Z,13.40
2023-06-01T21:40:14.778Z,10.40
2023-06-01T21:43:19.203Z,11.00
2023-06-01T21:46:22.534Z,11.80
2023-06-01T21:49:25.806Z,11.00
2023-06-01T21:52:30.658Z,12.80
2023-06-01T21:55:34.539Z,8.00
2023-06-01T21:58:39.057Z,10.00
2023-06-01T22:01:42.875Z,10.00
2023-06-01T22:04:46.202Z,9.20
2023-06-01T22:07:50.797Z,11.60
2023-06-01T22:10:54.097Z,12.00
2023-06-01T22:13:57.838Z,9.60
2023-06-01T22:17:01.201Z,10.00
2023-06-01T22:20:05.209Z,9.40
2023-06-01T22:23:10.733Z,10.40
2023-06-01T22:26:14.446Z,9.00
2023-06-01T22:29:18.109Z,11.00
2023-06-01T22:32:22.139Z,9.80
2023-06-01T22:35:25.533Z,11.00
2023-06-01T22:38:30.251Z,11.00
2023-06-01T22:41:33.529Z,10.80
2023-06-01T22:44:37.142Z,9.00
2023-06-01T22:47:40.471Z,13.00
2023-06-01T22:50:44.163Z,11.00
2023-06-01T22:53:48.767Z,11.00
2023-06-01T22:56:52.076Z,10.75
2023-06-01T22:59:55.313Z,10.75
2023-06-01T23:02:58.691Z,11.00
2023-06-01T23:06:04.569Z,8.60
2023-06-01T23:09:11.193Z,12.00
2023-06-01T23:12:14.751Z,9.80
2023-06-01T23:15:18.121Z,12.60
2023-06-01T23:18:21.392Z,16.00
2023-06-01T23:21:24.951Z,13.60
2023-06-01T23:24:29.922Z,11.60
2023-06-01T23:27:33.274Z,14.00
2023-06-01T23:30:37.216Z,14.00
2023-06-01T23:33:40.392Z,12.60
2023-06-01T23:36:43.627Z,14.00
2023-06-01T23:39:48.205Z,12.80
2023-06-01T23:42:51.864Z,13.00
2023-06-01T23:45:55.955Z,14.40
2023-06-01T23:48:59.298Z,13.60
2023-06-01T23:52:02.481Z,13.75
2023-06-01T23:55:08.657Z,13.00
2023-06-01T23:58:11.856Z,15.40
